TimeEDT,TemperatureF,Dew PointF,Humidity,Sea Level PressureIn,VisibilityMPH,Wind Direction,Wind SpeedMPH,Gust SpeedMPH,PrecipitationIn,Events,Conditions,WindDirDegrees,DateUTC
12:15 AM,70.0,69.6,99,30.04,5.0,Calm,Calm,-,N/A,,Clear,0,2013-08-03 04:15:00
12:35 AM,69.1,68.7,99,30.04,3.0,Calm,Calm,-,N/A,,Clear,0,2013-08-03 04:35:00
12:55 AM,69.4,69.3,99,30.03,4.0,Calm,Calm,-,N/A,,Clear,0,2013-08-03 04:55:00
1:15 AM,69.8,69.8,100,30.04,4.0,Calm,Calm,-,N/A,,Clear,0,2013-08-03 05:15:00
1:35 AM,69.1,68.5,98,30.03,4.0,Calm,Calm,-,N/A,,Clear,0,2013-08-03 05:35:00
1:55 AM,67.8,67.6,99,30.04,2.5,Calm,Calm,-,N/A,,Clear,0,2013-08-03 05:55:00
2:15 AM,66.9,66.7,99,30.03,3.0,Calm,Calm,-,N/A,,Clear,0,2013-08-03 06:15:00
2:35 AM,67.5,67.3,99,30.03,3.0,Calm,Calm,-,N/A,,Clear,0,2013-08-03 06:35:00
2:55 AM,67.5,67.5,100,30.03,3.0,Calm,Calm,-,N/A,,Clear,0,2013-08-03 06:55:00
3:15 AM,67.6,67.6,100,30.02,3.0,Calm,Calm,-,N/A,,Clear,0,2013-08-03 07:15:00
3:35 AM,68.9,68.5,99,30.01,4.0,Calm,Calm,-,N/A,,Clear,0,2013-08-03 07:35:00
3:55 AM,68.5,68.4,99,30.01,3.0,Calm,Calm,-,N/A,,Clear,0,2013-08-03 07:55:00
4:15 AM,67.1,66.9,99,30.01,3.0,Calm,Calm,-,N/A,,Clear,0,2013-08-03 08:15:00
4:35 AM,67.1,66.7,99,30.01,3.0,Calm,Calm,-,N/A,,Clear,0,2013-08-03 08:35:00
4:55 AM,67.1,66.9,99,30.01,3.0,Calm,Calm,-,N/A,,Clear,0,2013-08-03 08:55:00
5:15 AM,66.9,66.7,99,30.01,3.0,Calm,Calm,-,N/A,,Clear,0,2013-08-03 09:15:00
5:35 AM,67.8,67.8,100,30.01,4.0,Calm,Calm,-,N/A,,Clear,0,2013-08-03 09:35:00
5:55 AM,67.5,67.5,100,30.02,3.0,Calm,Calm,-,N/A,,Clear,0,2013-08-03 09:55:00
6:15 AM,67.8,67.6,99,30.02,3.0,Calm,Calm,-,N/A,,Clear,0,2013-08-03 10:15:00
6:35 AM,67.3,67.3,100,30.02,3.0,Calm,Calm,-,N/A,,Clear,0,2013-08-03 10:35:00
6:55 AM,67.5,67.5,100,30.02,2.5,Calm,Calm,-,N/A,,Clear,0,2013-08-03 10:55:00
7:15 AM,68.0,68.0,100,30.02,2.0,Calm,Calm,-,N/A,,Clear,0,2013-08-03 11:15:00
7:35 AM,68.9,68.9,100,30.02,3.0,Calm,Calm,-,N/A,,Clear,0,2013-08-03 11:35:00
7:55 AM,69.8,69.3,98,30.03,4.0,Calm,Calm,-,N/A,,Clear,0,2013-08-03 11:55:00
8:15 AM,70.0,68.9,96,30.02,4.0,Calm,Calm,-,N/A,,Clear,0,2013-08-03 12:15:00
8:35 AM,70.9,69.3,95,30.03,5.0,Calm,Calm,-,N/A,,Clear,0,2013-08-03 12:35:00
8:55 AM,71.2,69.8,95,30.03,5.0,Calm,Calm,-,N/A,,Clear,0,2013-08-03 12:55:00
9:15 AM,72.9,70.2,91,30.03,4.0,Calm,Calm,-,N/A,,Clear,0,2013-08-03 13:15:00
9:35 AM,74.1,70.5,88,30.03,5.0,SW,3.5,-,N/A,,Clear,230,2013-08-03 13:35:00
9:55 AM,74.8,70.9,87,30.03,5.0,Calm,Calm,-,N/A,,Clear,0,2013-08-03 13:55:00
10:15 AM,76.1,71.1,84,30.02,5.0,Calm,Calm,-,N/A,,Haze,0,2013-08-03 14:15:00
10:35 AM,77.9,71.4,80,30.02,7.0,WSW,4.6,-,N/A,,Clear,240,2013-08-03 14:35:00
10:55 AM,77.9,71.4,80,30.02,7.0,Calm,Calm,-,N/A,,Clear,0,2013-08-03 14:55:00
11:15 AM,79.7,71.6,76,30.01,7.0,SW,4.6,-,N/A,,Clear,220,2013-08-03 15:15:00
11:35 AM,80.6,72.5,76,30.02,5.0,Calm,Calm,-,N/A,,Haze,0,2013-08-03 15:35:00
11:55 AM,80.2,72.3,77,30.02,5.0,SW,3.5,-,N/A,,Haze,230,2013-08-03 15:55:00
12:15 PM,80.4,72.7,77,30.02,7.0,WSW,3.5,-,N/A,,Clear,250,2013-08-03 16:15:00
12:35 PM,80.6,72.5,76,30.02,5.0,WSW,3.5,-,N/A,,Haze,240,2013-08-03 16:35:00
12:55 PM,80.6,72.9,77,30.01,5.0,Calm,Calm,-,N/A,,Haze,0,2013-08-03 16:55:00
1:15 PM,81.5,73.2,76,30.01,5.0,SW,4.6,-,N/A,,Haze,230,2013-08-03 17:15:00
1:35 PM,82.9,72.5,71,30.01,7.0,Calm,Calm,-,N/A,,Clear,0,2013-08-03 17:35:00
1:55 PM,85.8,68.7,56,30.00,5.0,WNW,4.6,-,N/A,,Haze,300,2013-08-03 17:55:00
2:15 PM,85.5,68.9,57,29.99,7.0,WNW,3.5,-,N/A,,Clear,290,2013-08-03 18:15:00
2:35 PM,84.7,68.4,58,29.98,10.0,Calm,Calm,-,N/A,,Clear,0,2013-08-03 18:35:00
2:55 PM,86.0,67.1,53,29.98,10.0,NW,4.6,-,N/A,,Clear,310,2013-08-03 18:55:00
3:15 PM,86.2,67.5,53,29.97,10.0,NW,3.5,-,N/A,,Clear,310,2013-08-03 19:15:00
3:35 PM,86.7,67.6,53,29.97,10.0,WNW,4.6,-,N/A,,Clear,290,2013-08-03 19:35:00
3:55 PM,86.9,68.4,54,29.96,10.0,West,3.5,-,N/A,,Clear,280,2013-08-03 19:55:00
4:15 PM,86.4,68.4,55,29.95,10.0,West,3.5,-,N/A,,Clear,260,2013-08-03 20:15:00
4:35 PM,86.7,68.9,55,29.95,10.0,WNW,3.5,-,N/A,,Scattered Clouds,300,2013-08-03 20:35:00
4:55 PM,86.5,69.8,57,29.95,10.0,NW,4.6,-,N/A,,Scattered Clouds,320,2013-08-03 20:55:00
5:15 PM,87.1,69.1,55,29.95,10.0,West,5.8,-,N/A,,Scattered Clouds,280,2013-08-03 21:15:00
5:35 PM,86.2,68.9,56,29.96,10.0,Calm,Calm,-,N/A,,Mostly Cloudy,0,2013-08-03 21:35:00
5:55 PM,84.6,69.3,60,29.96,10.0,WNW,3.5,-,N/A,,Overcast,290,2013-08-03 21:55:00
6:15 PM,83.7,71.1,66,29.95,10.0,Calm,Calm,-,N/A,,Overcast,0,2013-08-03 22:15:00
6:35 PM,84.9,69.6,60,29.94,10.0,WNW,3.5,-,N/A,,Scattered Clouds,290,2013-08-03 22:35:00
6:55 PM,82.9,72.9,71,29.95,10.0,Calm,Calm,-,N/A,,Clear,0,2013-08-03 22:55:00
7:15 PM,80.6,75.2,84,29.94,10.0,Calm,Calm,-,N/A,,Clear,0,2013-08-03 23:15:00
7:35 PM,79.9,75.0,85,29.94,10.0,Calm,Calm,-,N/A,,Scattered Clouds,0,2013-08-03 23:35:00
7:55 PM,77.9,75.0,91,29.95,7.0,Calm,Calm,-,N/A,,Clear,0,2013-08-03 23:55:00
8:15 PM,75.4,73.2,93,29.95,5.0,Calm,Calm,-,N/A,,Clear,0,2013-08-04 00:15:00
8:35 PM,74.3,72.5,94,29.96,5.0,Calm,Calm,-,N/A,,Mostly Cloudy,0,2013-08-04 00:35:00
8:55 PM,74.5,73.4,96,29.96,5.0,Calm,Calm,-,N/A,,Overcast,0,2013-08-04 00:55:00
9:15 PM,73.2,71.8,95,29.96,5.0,Calm,Calm,-,N/A,,Scattered Clouds,0,2013-08-04 01:15:00
9:35 PM,72.7,71.6,96,29.97,5.0,Calm,Calm,-,N/A,,Mostly Cloudy,0,2013-08-04 01:35:00
9:55 PM,72.5,71.6,97,29.97,5.0,Calm,Calm,-,N/A,,Scattered Clouds,0,2013-08-04 01:55:00
10:15 PM,71.6,70.9,98,29.97,5.0,Calm,Calm,-,N/A,,Scattered Clouds,0,2013-08-04 02:15:00
10:35 PM,71.1,70.3,98,29.97,4.0,Calm,Calm,-,N/A,,Clear,0,2013-08-04 02:35:00
10:55 PM,70.0,69.4,98,29.97,4.0,Calm,Calm,-,N/A,,Clear,0,2013-08-04 02:55:00
11:15 PM,70.2,69.6,98,29.98,5.0,Calm,Calm,-,N/A,,Clear,0,2013-08-04 03:15:00
11:35 PM,70.0,69.6,99,29.98,3.0,Calm,Calm,-,N/A,,Scattered Clouds,0,2013-08-04 03:35:00
11:55 PM,69.4,68.9,98,29.97,3.0,Calm,Calm,-,N/A,,Scattered Clouds,0,2013-08-04 03:55:00